createdAt,value
2018-03-17T00:01:54.973Z,4.40
2018-03-17T00:04:23.083Z,4.40
2018-03-17T00:06:51.956Z,4.40
2018-03-17T00:09:20.863Z,4.50
2018-03-17T00:11:49.853Z,4.30
2018-03-17T00:14:18.845Z,4.30
2018-03-17T00:16:47.718Z,4.20
2018-03-17T00:19:16.595Z,4.10
2018-03-17T00:21:44.726Z,4.10
2018-03-17T00:24:12.843Z,4.00
2018-03-17T00:26:41.039Z,4.00
2018-03-17T00:29:09.918Z,3.90
2018-03-17T00:31:38.839Z,3.90
2018-03-17T00:34:07.007Z,3.90
2018-03-17T00:36:35.177Z,3.80
2018-03-17T00:39:03.286Z,3.80
2018-03-17T00:41:31.408Z,3.80
2018-03-17T00:44:00.294Z,3.70
2018-03-17T00:46:29.176Z,3.70
2018-03-17T00:48:57.372Z,3.70
2018-03-17T00:51:26.358Z,3.80
2018-03-17T00:53:55.362Z,3.80
2018-03-17T00:56:24.243Z,3.80
2018-03-17T00:58:53.110Z,3.80
2018-03-17T01:01:21.229Z,3.70
2018-03-17T01:03:49.360Z,3.80
2018-03-17T01:06:17.481Z,3.70
2018-03-17T01:08:45.596Z,3.60
2018-03-17T01:11:13.724Z,3.60
2018-03-17T01:13:41.856Z,3.60
2018-03-17T01:16:10.735Z,3.50
2018-03-17T01:18:38.840Z,3.50
2018-03-17T01:21:06.984Z,3.60
2018-03-17T01:23:35.960Z,3.50
2018-03-17T01:26:04.067Z,3.40
2018-03-17T01:28:32.198Z,3.40
2018-03-17T01:31:00.312Z,3.40
2018-03-17T01:33:28.439Z,3.40
2018-03-17T01:35:56.552Z,3.40
2018-03-17T01:38:25.460Z,3.40
2018-03-17T01:40:53.583Z,3.50
2018-03-17T01:43:21.724Z,3.50
2018-03-17T01:45:49.867Z,3.40
2018-03-17T01:48:18.737Z,3.30
2018-03-17T01:50:47.624Z,3.30
2018-03-17T01:53:16.524Z,3.30
2018-03-17T01:55:45.407Z,3.20
2018-03-17T01:58:14.272Z,3.20
2018-03-17T02:00:42.485Z,3.20
2018-03-17T02:03:10.600Z,3.20
2018-03-17T02:05:38.754Z,3.20
2018-03-17T02:08:06.904Z,3.30
2018-03-17T02:10:35.020Z,3.20
2018-03-17T02:13:03.253Z,3.20
2018-03-17T02:15:32.164Z,3.20
2018-03-17T02:18:00.319Z,3.20
2018-03-17T02:20:28.431Z,3.20
2018-03-17T02:22:56.552Z,3.20
2018-03-17T02:25:24.728Z,3.20
2018-03-17T02:27:53.600Z,3.20
2018-03-17T02:30:21.704Z,3.20
2018-03-17T02:32:49.853Z,3.20
2018-03-17T02:35:18.736Z,3.20
2018-03-17T02:37:47.622Z,3.20
2018-03-17T02:40:15.734Z,3.10
2018-03-17T02:42:43.847Z,3.10
2018-03-17T02:45:11.968Z,3.10
2018-03-17T02:47:40.072Z,3.10
2018-03-17T02:50:08.192Z,3.00
2018-03-17T02:52:37.092Z,3.00
2018-03-17T02:55:05.984Z,3.00
2018-03-17T02:57:34.099Z,3.00
2018-03-17T03:00:02.221Z,3.00
2018-03-17T03:02:31.143Z,2.90
2018-03-17T03:04:59.259Z,2.90
2018-03-17T03:07:27.463Z,2.90
2018-03-17T03:09:55.580Z,2.90
2018-03-17T03:12:23.709Z,2.90
2018-03-17T03:14:51.836Z,2.90
2018-03-17T03:17:21.451Z,2.80
2018-03-17T03:19:49.664Z,2.70
2018-03-17T03:22:17.791Z,2.70
2018-03-17T03:24:45.943Z,2.70
2018-03-17T03:27:14.067Z,2.70
2018-03-17T03:29:42.937Z,2.60
2018-03-17T03:32:11.061Z,2.60
2018-03-17T03:34:39.187Z,2.70
2018-03-17T03:37:08.071Z,2.70
2018-03-17T03:39:36.271Z,2.60
2018-03-17T03:42:04.415Z,2.60
2018-03-17T03:44:32.528Z,2.50
2018-03-17T03:47:00.687Z,2.50
2018-03-17T03:49:28.811Z,2.60
2018-03-17T03:51:56.920Z,2.50
2018-03-17T03:54:25.839Z,2.50
2018-03-17T03:56:53.955Z,2.50
2018-03-17T03:59:22.064Z,2.50
2018-03-17T04:01:50.189Z,2.50
2018-03-17T04:04:18.309Z,2.40
2018-03-17T04:06:47.303Z,2.50
2018-03-17T04:09:15.415Z,2.50
2018-03-17T04:11:43.547Z,2.50
2018-03-17T04:14:11.671Z,2.40
2018-03-17T04:16:39.817Z,2.40
2018-03-17T04:19:07.931Z,2.40
2018-03-17T04:21:36.827Z,2.30
2018-03-17T04:24:05.018Z,2.30
2018-03-17T04:26:33.953Z,2.20
2018-03-17T04:29:02.064Z,2.10
2018-03-17T04:31:30.168Z,2.20
2018-03-17T04:33:58.286Z,2.20
2018-03-17T04:36:26.430Z,2.10
2018-03-17T04:38:54.577Z,2.00
2018-03-17T04:41:22.688Z,1.90
2018-03-17T04:43:50.928Z,1.90
2018-03-17T04:46:19.093Z,1.90
2018-03-17T04:48:47.984Z,2.00
2018-03-17T04:51:16.869Z,1.90
2018-03-17T04:53:45.772Z,1.90
2018-03-17T04:56:13.946Z,1.90
2018-03-17T04:58:42.080Z,1.90
2018-03-17T05:01:10.220Z,1.80
2018-03-17T05:03:38.347Z,1.80
2018-03-17T05:06:07.224Z,1.70
2018-03-17T05:08:35.332Z,1.70
2018-03-17T05:11:03.469Z,1.70
2018-03-17T05:13:31.576Z,1.70
2018-03-17T05:15:59.728Z,1.70
2018-03-17T05:18:28.615Z,1.60
2018-03-17T05:20:57.490Z,1.50
2018-03-17T05:23:25.611Z,1.50
2018-03-17T05:25:53.748Z,1.50
2018-03-17T05:28:22.623Z,1.50
2018-03-17T05:30:50.745Z,1.50
2018-03-17T05:33:18.872Z,1.50
2018-03-17T05:35:47.772Z,1.40
2018-03-17T05:38:16.636Z,1.30
2018-03-17T05:40:44.757Z,1.30
2018-03-17T05:43:12.884Z,1.30
2018-03-17T05:45:41.009Z,1.40
2018-03-17T05:48:09.127Z,1.30
2018-03-17T05:50:37.241Z,1.40
2018-03-17T05:53:05.387Z,1.30
2018-03-17T05:55:34.294Z,1.20
2018-03-17T05:58:02.416Z,1.20
2018-03-17T06:00:30.531Z,1.30
2018-03-17T06:02:59.417Z,1.20
2018-03-17T06:05:28.290Z,1.10
2018-03-17T06:07:56.413Z,1.10
2018-03-17T06:10:24.564Z,1.10
2018-03-17T06:12:52.674Z,1.10
2018-03-17T06:15:20.909Z,1.10
2018-03-17T06:17:49.031Z,1.10
2018-03-17T06:20:17.158Z,1.00
2018-03-17T06:22:45.323Z,1.00
2018-03-17T06:25:13.451Z,0.90
2018-03-17T06:27:41.583Z,0.90
2018-03-17T06:30:09.738Z,1.00
2018-03-17T06:32:37.867Z,1.00
2018-03-17T06:35:06.001Z,0.90
2018-03-17T06:37:34.125Z,1.00
2018-03-17T06:40:02.281Z,1.10
2018-03-17T06:42:30.406Z,1.00
2018-03-17T06:44:58.519Z,1.00
2018-03-17T06:47:26.735Z,1.00
2018-03-17T06:49:55.625Z,1.00
2018-03-17T06:52:24.540Z,1.00
2018-03-17T06:54:52.653Z,0.90
2018-03-17T06:57:20.768Z,0.90
2018-03-17T06:59:48.891Z,0.90
2018-03-17T07:02:16.999Z,0.80
2018-03-17T07:04:45.911Z,0.80
2018-03-17T07:07:14.031Z,0.80
2018-03-17T07:09:42.171Z,0.80
2018-03-17T07:12:10.288Z,0.80
2018-03-17T07:14:39.181Z,0.70
2018-03-17T07:17:07.303Z,0.70
2018-03-17T07:19:35.418Z,0.80
2018-03-17T07:22:05.036Z,0.70
2018-03-17T07:24:33.923Z,0.70
2018-03-17T07:27:02.050Z,0.70
2018-03-17T07:29:30.157Z,0.60
2018-03-17T07:31:58.364Z,0.70
2018-03-17T07:34:27.263Z,0.70
2018-03-17T07:36:55.389Z,0.70
2018-03-17T07:39:23.508Z,0.80
2018-03-17T07:41:51.652Z,0.70
2018-03-17T07:44:20.527Z,0.60
2018-03-17T07:46:48.642Z,0.60
2018-03-17T07:49:16.895Z,0.60
2018-03-17T07:51:45.670Z,0.70
2018-03-17T07:54:14.575Z,0.70
2018-03-17T07:56:42.710Z,0.70
2018-03-17T07:59:10.844Z,0.60
2018-03-17T08:01:39.000Z,0.70
2018-03-17T08:04:07.136Z,0.70
2018-03-17T08:06:35.288Z,0.60
2018-03-17T08:09:03.404Z,0.70
2018-03-17T08:11:32.308Z,0.70
2018-03-17T08:14:01.159Z,0.70
2018-03-17T08:16:30.808Z,0.70
2018-03-17T08:18:58.944Z,0.70
2018-03-17T08:21:27.057Z,0.70
2018-03-17T08:23:55.321Z,0.70
2018-03-17T08:26:24.222Z,0.70
2018-03-17T08:28:53.135Z,0.70
2018-03-17T08:31:21.273Z,0.70
2018-03-17T08:33:50.159Z,0.70
2018-03-17T08:36:19.059Z,0.80
2018-03-17T08:38:47.178Z,0.80
2018-03-17T08:41:15.293Z,0.70
2018-03-17T08:43:43.477Z,0.70
2018-03-17T08:46:11.645Z,0.70
2018-03-17T08:48:39.820Z,0.70
2018-03-17T08:51:08.752Z,0.80
2018-03-17T08:53:37.609Z,0.80
2018-03-17T08:56:05.726Z,0.70
2018-03-17T08:58:33.872Z,0.70
2018-03-17T09:01:01.986Z,0.70
2018-03-17T09:03:30.098Z,0.70
2018-03-17T09:05:58.234Z,0.70
2018-03-17T09:08:26.446Z,0.70
2018-03-17T09:10:54.606Z,0.70
2018-03-17T09:13:22.776Z,0.60
2018-03-17T09:15:50.952Z,0.70
2018-03-17T09:18:19.105Z,0.70
2018-03-17T09:20:47.205Z,0.70
2018-03-17T09:23:15.368Z,0.70
2018-03-17T09:25:43.513Z,0.70
2018-03-17T09:28:11.668Z,0.70
2018-03-17T09:30:39.824Z,0.70
2018-03-17T09:33:07.934Z,0.60
2018-03-17T09:35:36.062Z,0.60
2018-03-17T09:38:04.195Z,0.60
2018-03-17T09:40:33.076Z,0.60
2018-03-17T09:43:01.968Z,0.60
2018-03-17T09:45:30.848Z,0.70
2018-03-17T09:47:59.744Z,0.70
2018-03-17T09:50:28.628Z,0.60
2018-03-17T09:52:57.528Z,0.60
2018-03-17T09:55:26.449Z,0.60
2018-03-17T09:57:54.560Z,0.60
2018-03-17T10:00:22.688Z,0.60
2018-03-17T10:02:50.804Z,0.50
2018-03-17T10:05:18.908Z,0.50
2018-03-17T10:07:47.800Z,0.50
2018-03-17T10:10:16.696Z,0.60
2018-03-17T10:12:44.804Z,0.50
2018-03-17T10:15:12.928Z,0.60
2018-03-17T10:17:41.853Z,0.60
2018-03-17T10:20:09.975Z,0.60
2018-03-17T10:22:38.088Z,0.50
2018-03-17T10:25:06.208Z,0.60
2018-03-17T10:27:34.339Z,0.60
2018-03-17T10:30:02.502Z,0.60
2018-03-17T10:32:30.608Z,0.60
2018-03-17T10:34:58.728Z,0.70
2018-03-17T10:37:27.620Z,0.70
2018-03-17T10:39:56.521Z,0.80
2018-03-17T10:42:24.653Z,0.70
2018-03-17T10:44:52.768Z,0.70
2018-03-17T10:47:20.967Z,0.70
2018-03-17T10:49:49.090Z,0.60
2018-03-17T10:52:17.959Z,0.60
2018-03-17T10:54:46.091Z,0.50
2018-03-17T10:57:14.197Z,0.60
2018-03-17T10:59:42.355Z,0.60
2018-03-17T11:02:10.476Z,0.70
2018-03-17T11:04:39.369Z,0.60
2018-03-17T11:07:08.293Z,0.60
2018-03-17T11:09:36.383Z,0.60
2018-03-17T11:12:04.513Z,0.60
2018-03-17T11:14:32.671Z,0.60
2018-03-17T11:17:01.553Z,0.70
2018-03-17T11:19:30.497Z,0.60
2018-03-17T11:21:58.623Z,0.60
2018-03-17T11:24:27.526Z,0.50
2018-03-17T11:26:55.695Z,0.50
2018-03-17T11:29:23.813Z,0.60
2018-03-17T11:31:51.981Z,0.50
2018-03-17T11:34:20.103Z,0.50
2018-03-17T11:36:48.273Z,0.50
2018-03-17T11:39:17.149Z,0.40
2018-03-17T11:41:45.268Z,0.40
2018-03-17T11:44:13.408Z,0.40
2018-03-17T11:46:42.359Z,0.40
2018-03-17T11:49:10.511Z,0.40
2018-03-17T11:51:38.610Z,0.40
2018-03-17T11:54:06.729Z,0.40
2018-03-17T11:56:34.845Z,0.50
2018-03-17T11:59:03.171Z,0.50
2018-03-17T12:01:31.448Z,0.50
2018-03-17T12:03:59.583Z,0.60
2018-03-17T12:06:27.787Z,0.60
2018-03-17T12:08:56.673Z,0.50
2018-03-17T12:11:25.549Z,0.40
2018-03-17T12:13:53.842Z,0.40
2018-03-17T12:16:21.981Z,0.40
2018-03-17T12:18:50.109Z,0.60
2018-03-17T12:21:18.239Z,0.50
2018-03-17T12:23:46.345Z,0.60
2018-03-17T12:26:14.467Z,0.50
2018-03-17T12:28:44.093Z,0.40
2018-03-17T12:31:12.967Z,0.40
2018-03-17T12:33:41.096Z,0.40
2018-03-17T12:36:09.327Z,0.40
2018-03-17T12:38:38.202Z,0.30
2018-03-17T12:41:06.404Z,0.30
2018-03-17T12:43:35.322Z,0.40
2018-03-17T12:46:03.444Z,0.40
2018-03-17T12:48:31.674Z,0.40
2018-03-17T12:50:59.796Z,0.40
2018-03-17T12:53:28.808Z,0.40
2018-03-17T12:55:57.702Z,0.30
2018-03-17T12:58:25.857Z,0.30
2018-03-17T13:00:54.747Z,0.20
2018-03-17T13:03:23.680Z,0.30
2018-03-17T13:05:51.800Z,0.20
2018-03-17T13:08:19.916Z,0.20
2018-03-17T13:10:48.033Z,0.20
2018-03-17T13:13:16.159Z,0.30
2018-03-17T13:15:44.310Z,0.30
2018-03-17T13:18:13.216Z,0.30
2018-03-17T13:20:41.351Z,0.30
2018-03-17T13:23:18.355Z,0.40
2018-03-17T13:25:46.503Z,0.40
2018-03-17T13:28:36.407Z,0.30
2018-03-17T13:31:04.538Z,0.30
2018-03-17T13:33:32.672Z,0.30
2018-03-17T13:36:12.757Z,0.30
2018-03-17T13:38:41.011Z,0.30
2018-03-17T13:41:09.116Z,0.20
2018-03-17T13:43:37.253Z,0.20
2018-03-17T13:46:05.403Z,0.20
2018-03-17T13:48:33.513Z,0.10
2018-03-17T13:51:01.631Z,0.20
2018-03-17T13:53:30.547Z,0.10
2018-03-17T13:55:58.666Z,0.10
2018-03-17T13:58:26.785Z,0.20
2018-03-17T14:00:54.893Z,0.30
2018-03-17T14:03:23.079Z,0.30
2018-03-17T14:05:51.992Z,0.20
2018-03-17T14:08:20.874Z,0.20
2018-03-17T14:10:49.024Z,0.20
2018-03-17T14:13:17.206Z,0.20
2018-03-17T14:15:46.018Z,0.20
2018-03-17T14:18:14.912Z,0.20
2018-03-17T14:20:43.785Z,0.20
2018-03-17T14:23:11.960Z,0.20
2018-03-17T14:25:40.092Z,0.20
2018-03-17T14:28:08.182Z,0.20
2018-03-17T14:30:36.302Z,0.30
2018-03-17T14:33:04.448Z,0.20
2018-03-17T14:35:32.586Z,0.20
2018-03-17T14:38:00.742Z,0.10
2018-03-17T14:40:28.852Z,0.10
2018-03-17T14:42:58.468Z,0.20
2018-03-17T14:45:26.664Z,0.20
2018-03-17T14:47:54.871Z,0.10
2018-03-17T14:50:22.970Z,0.20
2018-03-17T14:52:51.084Z,0.20
2018-03-17T14:55:19.220Z,0.20
2018-03-17T14:57:47.425Z,0.10
2018-03-17T15:00:16.303Z,0.20
2018-03-17T15:02:45.224Z,0.20
2018-03-17T15:05:13.412Z,0.20
2018-03-17T15:07:41.554Z,0.20
2018-03-17T15:10:10.420Z,0.20
2018-03-17T15:12:38.648Z,0.20
2018-03-17T15:15:06.756Z,0.20
2018-03-17T15:17:34.874Z,0.30
2018-03-17T15:20:03.747Z,0.40
2018-03-17T15:22:32.636Z,0.30
2018-03-17T15:25:00.904Z,0.30
2018-03-17T15:27:29.056Z,0.30
2018-03-17T15:29:57.175Z,0.30
2018-03-17T15:32:25.337Z,0.20
2018-03-17T15:34:54.253Z,0.10
2018-03-17T15:37:22.386Z,0.10
2018-03-17T15:39:51.278Z,0.20
2018-03-17T15:42:19.412Z,0.20
2018-03-17T15:44:47.618Z,0.20
2018-03-17T15:47:16.624Z,0.10
2018-03-17T15:49:44.754Z,0.10
2018-03-17T15:52:12.932Z,0.10
2018-03-17T15:54:41.052Z,0.10
2018-03-17T15:57:09.218Z,0.10
2018-03-17T15:59:37.380Z,0.20
2018-03-17T16:02:06.256Z,0.10
2018-03-17T16:04:35.156Z,0.10
2018-03-17T16:07:04.157Z,0.00
2018-03-17T16:09:33.036Z,0.10
2018-03-17T16:12:02.046Z,0.00
2018-03-17T16:14:30.156Z,0.10
2018-03-17T16:16:58.305Z,0.10
2018-03-17T16:19:26.642Z,0.10
2018-03-17T16:21:55.562Z,0.10
2018-03-17T16:24:24.800Z,0.10
2018-03-17T16:26:52.917Z,0.00
2018-03-17T16:29:21.796Z,0.00
2018-03-17T16:31:50.679Z,0.00
2018-03-17T16:34:18.809Z,-0.10
2018-03-17T16:36:47.062Z,-0.10
2018-03-17T16:39:15.330Z,0.00
2018-03-17T16:41:43.421Z,-0.10
2018-03-17T16:44:11.531Z,-0.20
2018-03-17T16:46:39.767Z,-0.10
2018-03-17T16:49:07.891Z,-0.10
2018-03-17T16:51:36.017Z,-0.10
2018-03-17T16:54:04.163Z,0.00
2018-03-17T16:56:32.295Z,0.00
2018-03-17T16:59:00.409Z,0.00
2018-03-17T17:01:28.530Z,-0.10
2018-03-17T17:03:56.773Z,-0.10
2018-03-17T17:06:24.947Z,-0.10
2018-03-17T17:08:53.084Z,-0.10
2018-03-17T17:11:21.998Z,0.00
2018-03-17T17:13:50.091Z,0.00
2018-03-17T17:16:18.251Z,-0.10
2018-03-17T17:18:46.412Z,0.00
2018-03-17T17:21:14.599Z,0.00
2018-03-17T17:23:42.771Z,0.00
2018-03-17T17:26:10.892Z,0.00
2018-03-17T17:28:39.081Z,0.00
2018-03-17T17:31:07.967Z,0.00
2018-03-17T17:33:36.839Z,0.00
2018-03-17T17:36:05.083Z,-0.10
2018-03-17T17:38:33.201Z,0.00
2018-03-17T17:41:02.110Z,-0.10
2018-03-17T17:43:30.259Z,-0.10
2018-03-17T17:45:58.560Z,0.00
2018-03-17T17:48:26.660Z,0.00
2018-03-17T17:50:54.816Z,0.00
2018-03-17T17:53:22.933Z,-0.10
2018-03-17T17:55:51.079Z,0.00
2018-03-17T17:58:19.205Z,0.00
2018-03-17T18:00:48.112Z,-0.10
2018-03-17T18:03:16.227Z,-0.10
2018-03-17T18:05:44.349Z,-0.10
2018-03-17T18:08:12.511Z,-0.10
2018-03-17T18:10:41.399Z,-0.10
2018-03-17T18:13:10.271Z,-0.10
2018-03-17T18:15:38.471Z,-0.10
2018-03-17T18:18:07.371Z,-0.20
2018-03-17T18:20:35.487Z,-0.20
2018-03-17T18:23:03.705Z,-0.20
2018-03-17T18:25:32.625Z,-0.20
2018-03-17T18:28:00.775Z,-0.20
2018-03-17T18:30:28.898Z,-0.20
2018-03-17T18:32:57.015Z,-0.20
2018-03-17T18:35:25.190Z,-0.20
2018-03-17T18:37:53.327Z,-0.20
2018-03-17T18:40:21.462Z,-0.10
2018-03-17T18:42:49.616Z,-0.10
2018-03-17T18:45:17.772Z,-0.10
2018-03-17T18:47:45.850Z,-0.20
2018-03-17T18:50:13.998Z,-0.20
2018-03-17T18:52:42.888Z,-0.20
2018-03-17T18:55:11.798Z,-0.10
2018-03-17T18:57:40.701Z,-0.10
2018-03-17T19:00:08.826Z,-0.10
2018-03-17T19:02:37.032Z,-0.10
2018-03-17T19:05:05.928Z,-0.10
2018-03-17T19:07:34.050Z,-0.20
2018-03-17T19:10:02.188Z,-0.20
2018-03-17T19:12:30.298Z,-0.10
2018-03-17T19:14:58.405Z,-0.10
2018-03-17T19:17:27.345Z,0.00
2018-03-17T19:19:55.492Z,0.00
2018-03-17T19:22:23.740Z,0.00
2018-03-17T19:24:52.629Z,0.00
2018-03-17T19:27:21.560Z,0.00
2018-03-17T19:29:49.660Z,-0.10
2018-03-17T19:32:17.831Z,-0.10
2018-03-17T19:34:45.900Z,-0.10
2018-03-17T19:37:14.048Z,-0.10
2018-03-17T19:39:42.300Z,-0.20
2018-03-17T19:42:10.428Z,-0.10
2018-03-17T19:44:38.640Z,-0.10
2018-03-17T19:47:06.796Z,-0.10
2018-03-17T19:49:34.931Z,-0.10
2018-03-17T19:52:03.051Z,-0.20
2018-03-17T19:54:31.952Z,-0.10
2018-03-17T19:57:00.077Z,-0.10
2018-03-17T19:59:28.296Z,-0.20
2018-03-17T20:01:56.470Z,-0.10
2018-03-17T20:04:24.578Z,-0.20
2018-03-17T20:06:52.706Z,-0.10
2018-03-17T20:09:21.600Z,-0.10
2018-03-17T20:11:49.778Z,-0.20
2018-03-17T20:14:17.973Z,-0.10
2018-03-17T20:16:46.031Z,0.00
2018-03-17T20:19:14.308Z,-0.10
2018-03-17T20:21:43.180Z,-0.10
2018-03-17T20:24:12.065Z,-0.10
2018-03-17T20:26:40.963Z,-0.10
2018-03-17T20:29:09.115Z,-0.10
2018-03-17T20:31:38.022Z,-0.20
2018-03-17T20:34:06.919Z,-0.20
2018-03-17T20:36:35.123Z,-0.20
2018-03-17T20:39:03.276Z,-0.20
2018-03-17T20:41:31.407Z,-0.20
2018-03-17T20:43:59.531Z,-0.20
2018-03-17T20:46:27.681Z,-0.20
2018-03-17T20:48:55.859Z,-0.20
2018-03-17T20:51:23.991Z,-0.20
2018-03-17T20:53:52.195Z,-0.10
2018-03-17T20:56:20.311Z,-0.10
2018-03-17T20:58:48.467Z,-0.20
2018-03-17T21:01:16.608Z,-0.20
2018-03-17T21:03:44.729Z,-0.30
2018-03-17T21:06:12.851Z,-0.30
2018-03-17T21:08:41.741Z,-0.30
2018-03-17T21:11:10.675Z,-0.20
2018-03-17T21:13:38.805Z,-0.20
2018-03-17T21:16:07.686Z,-0.20
2018-03-17T21:18:36.589Z,-0.20
2018-03-17T21:21:04.739Z,-0.20
2018-03-17T21:23:33.643Z,-0.20
2018-03-17T21:26:02.527Z,-0.20
2018-03-17T21:28:31.423Z,-0.20
2018-03-17T21:31:00.353Z,-0.20
2018-03-17T21:33:28.495Z,-0.20
2018-03-17T21:35:56.611Z,-0.20
2018-03-17T21:38:24.769Z,-0.20
2018-03-17T21:40:52.959Z,-0.20
2018-03-17T21:43:21.785Z,-0.20
2018-03-17T21:45:50.672Z,-0.20
2018-03-17T21:48:19.602Z,-0.20
2018-03-17T21:50:48.058Z,-0.20
2018-03-17T21:55:51.460Z,-0.20
2018-03-17T21:58:20.358Z,-0.30
2018-03-17T22:00:49.259Z,-0.30
2018-03-17T22:03:18.248Z,-0.30
2018-03-17T22:05:46.354Z,-0.40
2018-03-17T22:08:14.484Z,-0.30
2018-03-17T22:10:42.642Z,-0.20
2018-03-17T22:13:11.521Z,-0.30
2018-03-17T22:15:39.636Z,-0.30
2018-03-17T22:18:07.766Z,-0.30
2018-03-17T22:20:35.892Z,-0.30
2018-03-17T22:23:04.128Z,-0.30
2018-03-17T22:25:33.029Z,-0.20
2018-03-17T22:28:01.204Z,-0.30
2018-03-17T22:30:29.353Z,-0.20
2018-03-17T22:32:57.485Z,-0.20
2018-03-17T22:35:25.616Z,-0.20
2018-03-17T22:37:53.757Z,-0.30
2018-03-17T22:40:21.900Z,-0.20
2018-03-17T22:42:50.046Z,-0.20
2018-03-17T22:45:18.215Z,-0.20
2018-03-17T22:47:46.331Z,-0.20
2018-03-17T22:50:14.470Z,-0.30
2018-03-17T22:52:42.598Z,-0.30
2018-03-17T22:55:10.707Z,-0.20
2018-03-17T22:57:38.815Z,-0.30
2018-03-17T23:00:06.940Z,-0.30
2018-03-17T23:02:35.063Z,-0.30
2018-03-17T23:05:03.309Z,-0.30
2018-03-17T23:07:31.437Z,-0.30
2018-03-17T23:09:59.559Z,-0.30
2018-03-17T23:12:27.700Z,-0.30
2018-03-17T23:14:55.819Z,-0.20
2018-03-17T23:17:24.048Z,-0.30
2018-03-17T23:19:52.179Z,-0.20
2018-03-17T23:22:20.327Z,-0.30
2018-03-17T23:24:48.443Z,-0.30
2018-03-17T23:27:17.335Z,-0.30
2018-03-17T23:29:46.249Z,-0.20
2018-03-17T23:32:14.411Z,-0.30
2018-03-17T23:34:43.307Z,-0.30
2018-03-17T23:37:11.447Z,-0.30
2018-03-17T23:39:39.579Z,-0.40
2018-03-17T23:42:07.741Z,-0.40
2018-03-17T23:44:35.858Z,-0.40
2018-03-17T23:47:03.978Z,-0.30
2018-03-17T23:49:32.111Z,-0.30
2018-03-17T23:52:00.244Z,-0.30
2018-03-17T23:54:28.355Z,-0.30
2018-03-17T23:56:56.480Z,-0.30
2018-03-17T23:59:24.599Z,-0.30
